EGPN/DND METAR and TAF weather

Enter ICAO airport designator
Station Type Date Time Source
EGPN METAR 2022/01/29 09:50 UTC NOAA

EGPN 290950Z 25029KT 9999 FEW020 09/05 Q1004


Station Type Date Time Source
EGPN Decoded METAR 2022/01/29 09:50 UTC NOAA

Dundee / Riverside, United Kingdom (EGPN) 56-27N 003-01W
Jan 29, 2022 - 04:50 AM EST / 2022.01.29 0950 UTC
Wind: from the WSW (250 degrees) at 33 MPH (29 KT):0
Visibility: greater than 7 mile(s):0
Sky conditions: mostly clear
Temperature: 48 F (9 C)
Dew Point: 41 F (5 C)
Relative Humidity: 75%
Pressure (altimeter): 29.65 in. Hg (1004 hPa)
ob: EGPN 290950Z 25029KT 9999 FEW020 09/05 Q1004
cycle: 10

Station Type Date Time Source
EGPN TAF 2019/01/15 18:56 UTC NOAA

TAF EGPN 151750Z 1518/1621 CNL

Example: see airport list